createdAt,value
2023-03-17T00:00:05.449Z,130.000000
2023-03-17T00:01:00.258Z,130.000000
2023-03-17T00:02:00.385Z,125.000000
2023-03-17T00:03:00.276Z,125.000000
2023-03-17T00:04:00.405Z,130.000000
2023-03-17T00:05:03.827Z,130.000000
2023-03-17T00:06:00.374Z,130.000000
2023-03-17T00:07:00.305Z,122.500000
2023-03-17T00:08:00.430Z,122.500000
2023-03-17T00:09:00.303Z,122.500000
2023-03-17T00:10:05.212Z,130.000000
2023-03-17T00:11:00.317Z,130.000000
2023-03-17T00:12:00.414Z,127.500000
2023-03-17T00:13:00.332Z,127.500000
2023-03-17T00:14:00.443Z,127.500000
2023-03-17T00:15:04.026Z,125.000000
2023-03-17T00:16:00.523Z,125.000000
2023-03-17T00:17:00.344Z,122.500000
2023-03-17T00:18:00.442Z,122.500000
2023-03-17T00:19:00.354Z,125.000000
2023-03-17T00:20:15.359Z,125.000000
2023-03-17T00:21:00.384Z,125.000000
2023-03-17T00:22:00.453Z,135.000000
2023-03-17T00:23:00.386Z,135.000000
2023-03-17T00:24:00.470Z,135.000000
2023-03-17T00:25:04.042Z,122.500000
2023-03-17T00:26:00.506Z,122.500000
2023-03-17T00:27:00.411Z,125.000000
2023-03-17T00:28:00.469Z,125.000000
2023-03-17T00:29:00.403Z,125.000000
2023-03-17T00:30:06.829Z,125.000000
2023-03-17T00:31:00.462Z,125.000000
2023-03-17T00:32:00.518Z,120.000000
2023-03-17T00:33:00.513Z,120.000000
2023-03-17T00:34:00.514Z,120.000000
2023-03-17T00:35:04.926Z,120.000000
2023-03-17T00:36:00.594Z,120.000000
2023-03-17T00:37:00.442Z,127.500000
2023-03-17T00:38:00.538Z,127.500000
2023-03-17T00:39:00.486Z,127.500000
2023-03-17T00:40:05.142Z,125.000000
2023-03-17T00:41:00.473Z,125.000000
2023-03-17T00:42:00.610Z,125.000000
2023-03-17T00:43:00.490Z,125.000000
2023-03-17T00:44:00.584Z,125.000000
2023-03-17T00:45:04.116Z,132.500000
2023-03-17T00:46:00.566Z,132.500000
2023-03-17T00:47:00.610Z,132.500000
2023-03-17T00:48:00.644Z,132.500000
2023-03-17T00:49:00.508Z,132.500000
2023-03-17T00:50:05.990Z,115.000000
2023-03-17T00:51:00.575Z,115.000000
2023-03-17T00:52:00.630Z,120.000000
2023-03-17T00:53:00.573Z,120.000000
2023-03-17T00:54:00.650Z,120.000000
2023-03-17T00:55:04.103Z,127.500000
2023-03-17T00:56:00.713Z,127.500000
2023-03-17T00:57:00.600Z,125.000000
2023-03-17T00:58:00.667Z,125.000000
2023-03-17T00:59:00.606Z,125.000000
2023-03-17T01:00:06.516Z,120.000000
2023-03-17T01:01:01.830Z,120.000000
2023-03-17T01:02:01.760Z,122.500000
2023-03-17T01:03:01.654Z,122.500000
2023-03-17T01:04:01.711Z,122.500000
2023-03-17T01:05:06.601Z,127.500000
2023-03-17T01:06:01.775Z,127.500000
2023-03-17T01:07:01.698Z,127.500000
2023-03-17T01:08:01.749Z,115.000000
2023-03-17T01:09:01.688Z,115.000000
2023-03-17T01:10:06.573Z,122.500000
2023-03-17T01:11:01.684Z,122.500000
2023-03-17T01:12:01.776Z,122.500000
2023-03-17T01:13:01.866Z,135.000000
2023-03-17T01:14:01.761Z,135.000000
2023-03-17T01:15:05.272Z,132.500000
2023-03-17T01:16:01.783Z,132.500000
2023-03-17T01:17:01.740Z,132.500000
2023-03-17T01:18:01.834Z,122.500000
2023-03-17T01:19:01.839Z,122.500000
2023-03-17T01:20:06.707Z,122.500000
2023-03-17T01:21:01.775Z,122.500000
2023-03-17T01:22:01.840Z,122.500000
2023-03-17T01:23:01.776Z,122.500000
2023-03-17T01:24:01.864Z,122.500000
2023-03-17T01:25:05.340Z,120.000000
2023-03-17T01:26:01.884Z,120.000000
2023-03-17T01:27:01.809Z,120.000000
2023-03-17T01:28:01.855Z,122.500000
2023-03-17T01:29:01.811Z,122.500000
2023-03-17T01:30:06.869Z,122.500000
2023-03-17T01:31:01.806Z,125.000000
2023-03-17T01:32:01.911Z,125.000000
2023-03-17T01:33:01.879Z,125.000000
2023-03-17T01:34:01.916Z,125.000000
2023-03-17T01:35:05.293Z,125.000000
2023-03-17T01:36:02.015Z,120.000000
2023-03-17T01:37:01.860Z,120.000000
2023-03-17T01:38:01.961Z,122.500000
2023-03-17T01:39:01.869Z,122.500000
2023-03-17T01:40:06.700Z,122.500000
2023-03-17T01:41:01.889Z,130.000000
2023-03-17T01:42:01.014Z,130.000000
2023-03-17T01:43:00.906Z,125.000000
2023-03-17T01:44:01.027Z,125.000000
2023-03-17T01:45:08.128Z,125.000000
2023-03-17T01:46:01.130Z,122.500000
2023-03-17T01:47:00.953Z,122.500000
2023-03-17T01:48:01.060Z,122.500000
2023-03-17T01:49:00.958Z,122.500000
2023-03-17T01:50:05.644Z,122.500000
2023-03-17T01:51:00.976Z,125.000000
2023-03-17T01:52:01.140Z,125.000000
2023-03-17T01:53:00.980Z,125.000000
2023-03-17T01:54:01.103Z,125.000000
2023-03-17T01:55:05.486Z,125.000000
2023-03-17T01:56:01.070Z,130.000000
2023-03-17T01:57:01.040Z,130.000000
2023-03-17T01:58:01.101Z,130.000000
2023-03-17T01:59:01.013Z,125.000000
2023-03-17T02:00:05.888Z,127.500000
2023-03-17T02:01:01.090Z,127.500000
2023-03-17T02:02:01.143Z,127.500000
2023-03-17T02:03:01.063Z,125.000000
2023-03-17T02:04:01.254Z,125.000000
2023-03-17T02:05:04.681Z,125.000000
2023-03-17T02:06:01.140Z,122.500000
2023-03-17T02:07:01.048Z,122.500000
2023-03-17T02:08:01.162Z,130.000000
2023-03-17T02:09:01.080Z,130.000000
2023-03-17T02:10:05.927Z,120.000000
2023-03-17T02:11:01.088Z,120.000000
2023-03-17T02:12:01.169Z,120.000000
2023-03-17T02:13:01.102Z,120.000000
2023-03-17T02:14:01.171Z,120.000000
2023-03-17T02:15:04.767Z,120.000000
2023-03-17T02:16:01.228Z,120.000000
2023-03-17T02:17:01.199Z,120.000000
2023-03-17T02:18:01.282Z,120.000000
2023-03-17T02:19:01.141Z,127.500000
2023-03-17T02:20:05.913Z,127.500000
2023-03-17T02:21:01.150Z,135.000000
2023-03-17T02:22:01.279Z,135.000000
2023-03-17T02:23:01.151Z,130.000000
2023-03-17T02:24:01.266Z,130.000000
2023-03-17T02:25:04.652Z,130.000000
2023-03-17T02:26:01.251Z,115.000000
2023-03-17T02:27:01.201Z,115.000000
2023-03-17T02:28:01.279Z,112.500000
2023-03-17T02:29:01.168Z,112.500000
2023-03-17T02:30:06.109Z,112.500000
2023-03-17T02:31:01.218Z,122.500000
2023-03-17T02:32:01.294Z,122.500000
2023-03-17T02:33:01.281Z,125.000000
2023-03-17T02:34:01.332Z,125.000000
2023-03-17T02:35:04.111Z,125.000000
2023-03-17T02:36:01.945Z,125.000000
2023-03-17T02:37:00.683Z,125.000000
2023-03-17T02:38:00.755Z,127.500000
2023-03-17T02:39:00.728Z,127.500000
2023-03-17T02:40:06.263Z,127.500000
2023-03-17T02:41:00.650Z,125.000000
2023-03-17T02:42:00.814Z,125.000000
2023-03-17T02:43:00.730Z,127.500000
2023-03-17T02:44:00.789Z,127.500000
2023-03-17T02:45:04.134Z,127.500000
2023-03-17T02:46:00.909Z,130.000000
2023-03-17T02:47:00.643Z,130.000000
2023-03-17T02:48:00.842Z,130.000000
2023-03-17T02:49:00.760Z,127.500000
2023-03-17T02:50:05.635Z,127.500000
2023-03-17T02:51:00.697Z,127.500000
2023-03-17T02:52:00.875Z,125.000000
2023-03-17T02:53:00.670Z,125.000000
2023-03-17T02:54:00.764Z,115.000000
2023-03-17T02:55:04.375Z,115.000000
2023-03-17T02:56:00.895Z,120.000000
2023-03-17T02:57:00.696Z,120.000000
2023-03-17T02:58:00.791Z,120.000000
2023-03-17T02:59:00.781Z,125.000000
2023-03-17T03:00:05.567Z,125.000000
2023-03-17T03:01:00.819Z,125.000000
2023-03-17T03:02:00.836Z,122.500000
2023-03-17T03:03:00.832Z,122.500000
2023-03-17T03:06:03.024Z,137.500000
2023-03-17T03:07:00.842Z,137.500000
2023-03-17T03:08:00.809Z,137.500000
2023-03-17T03:09:00.805Z,135.000000
2023-03-17T03:10:05.589Z,135.000000
2023-03-17T03:11:00.677Z,135.000000
2023-03-17T03:12:00.883Z,127.500000
2023-03-17T03:13:00.848Z,127.500000
2023-03-17T03:14:00.806Z,125.000000
2023-03-17T03:15:05.196Z,125.000000
2023-03-17T03:16:00.906Z,125.000000
2023-03-17T03:17:00.680Z,125.000000
2023-03-17T03:18:00.901Z,125.000000
2023-03-17T03:19:00.832Z,127.500000
2023-03-17T03:20:05.842Z,127.500000
2023-03-17T03:21:00.731Z,127.500000
2023-03-17T03:22:00.945Z,127.500000
2023-03-17T03:23:00.710Z,127.500000
2023-03-17T03:24:00.792Z,120.000000
2023-03-17T03:25:04.178Z,120.000000
2023-03-17T03:26:00.949Z,120.000000
2023-03-17T03:27:00.708Z,125.000000
2023-03-17T03:28:00.818Z,125.000000
2023-03-17T03:29:00.811Z,122.500000
2023-03-17T03:30:05.572Z,122.500000
2023-03-17T03:31:00.822Z,122.500000
2023-03-17T03:32:01.011Z,125.000000
2023-03-17T03:33:00.872Z,125.000000
2023-03-17T03:34:00.834Z,125.000000
2023-03-17T03:35:06.007Z,120.000000
2023-03-17T03:36:00.797Z,120.000000
2023-03-17T03:37:00.656Z,125.000000
2023-03-17T03:38:00.881Z,125.000000
2023-03-17T03:39:00.701Z,125.000000
2023-03-17T03:40:05.562Z,127.500000
2023-03-17T03:41:00.698Z,127.500000
2023-03-17T03:42:01.054Z,130.000000
2023-03-17T03:43:07.512Z,130.000000
2023-03-17T03:44:00.831Z,130.000000
2023-03-17T03:45:05.425Z,120.000000
2023-03-17T03:46:00.900Z,120.000000
2023-03-17T03:47:00.696Z,117.500000
2023-03-17T03:48:00.886Z,117.500000
2023-03-17T03:49:00.654Z,132.500000
2023-03-17T03:50:04.570Z,132.500000
2023-03-17T03:51:00.728Z,132.500000
2023-03-17T03:52:00.902Z,127.500000
2023-03-17T03:53:00.691Z,127.500000
2023-03-17T03:54:00.811Z,127.500000
2023-03-17T03:55:05.230Z,117.500000
2023-03-17T03:56:00.778Z,117.500000
2023-03-17T03:57:00.741Z,112.500000
2023-03-17T03:58:00.896Z,112.500000
2023-03-17T03:59:00.793Z,117.500000
2023-03-17T04:00:04.771Z,117.500000
2023-03-17T04:01:00.750Z,117.500000
2023-03-17T04:02:00.960Z,120.000000
2023-03-17T04:03:00.901Z,120.000000
2023-03-17T04:04:00.833Z,120.000000
2023-03-17T04:05:05.436Z,125.000000
2023-03-17T04:06:00.892Z,125.000000
2023-03-17T04:07:00.780Z,125.000000
2023-03-17T04:08:00.860Z,125.000000
2023-03-17T04:09:00.834Z,125.000000
2023-03-17T04:10:04.505Z,125.000000
2023-03-17T04:11:00.846Z,125.000000
2023-03-17T04:12:00.923Z,122.500000
2023-03-17T04:13:00.822Z,122.500000
2023-03-17T04:14:00.912Z,122.500000
2023-03-17T04:15:05.421Z,135.000000
2023-03-17T04:16:01.015Z,135.000000
2023-03-17T04:17:00.855Z,130.000000
2023-03-17T04:18:00.938Z,130.000000
2023-03-17T04:19:00.858Z,127.500000
2023-03-17T04:20:04.822Z,127.500000
2023-03-17T04:21:00.866Z,127.500000
2023-03-17T04:22:00.928Z,127.500000
2023-03-17T04:23:01.007Z,127.500000
2023-03-17T04:24:00.942Z,127.500000
2023-03-17T04:25:05.367Z,130.000000
2023-03-17T04:26:00.985Z,130.000000
2023-03-17T04:27:00.893Z,130.000000
2023-03-17T04:28:00.954Z,130.000000
2023-03-17T04:29:00.903Z,130.000000
2023-03-17T04:30:06.604Z,125.000000
2023-03-17T04:31:00.921Z,125.000000
2023-03-17T04:32:00.987Z,127.500000
2023-03-17T04:33:00.997Z,127.500000
2023-03-17T04:34:01.016Z,127.500000
2023-03-17T04:35:05.457Z,120.000000
2023-03-17T04:36:01.065Z,120.000000
2023-03-17T04:37:00.919Z,120.000000
2023-03-17T04:38:01.011Z,130.000000
2023-03-17T04:39:00.947Z,130.000000
2023-03-17T04:40:05.753Z,122.500000
2023-03-17T04:41:00.978Z,122.500000
2023-03-17T04:42:01.046Z,122.500000
2023-03-17T04:43:03.369Z,117.500000
2023-03-17T04:44:01.029Z,117.500000
2023-03-17T04:45:04.577Z,122.500000
2023-03-17T04:46:01.104Z,122.500000
2023-03-17T04:47:00.992Z,122.500000
2023-03-17T04:48:01.071Z,125.000000
2023-03-17T04:49:00.999Z,125.000000
2023-03-17T04:50:05.784Z,130.000000
2023-03-17T04:51:01.009Z,130.000000
2023-03-17T04:52:01.083Z,130.000000
2023-03-17T04:53:01.206Z,127.500000
2023-03-17T04:54:01.112Z,127.500000
2023-03-17T04:55:04.423Z,140.000000
2023-03-17T04:56:01.124Z,140.000000
2023-03-17T04:57:01.083Z,140.000000
2023-03-17T04:58:01.147Z,135.000000
2023-03-17T04:59:01.081Z,135.000000
2023-03-17T05:00:05.954Z,135.000000
2023-03-17T05:01:01.117Z,132.500000
2023-03-17T05:02:01.176Z,132.500000
2023-03-17T05:03:01.066Z,135.000000
2023-03-17T05:04:01.141Z,135.000000
2023-03-17T05:05:04.737Z,125.000000
2023-03-17T05:06:01.164Z,125.000000
2023-03-17T05:07:01.067Z,125.000000
2023-03-17T05:08:01.198Z,125.000000
2023-03-17T05:09:01.087Z,125.000000
2023-03-17T05:10:05.960Z,122.500000
2023-03-17T05:11:01.101Z,122.500000
2023-03-17T05:12:01.238Z,122.500000
2023-03-17T05:13:01.119Z,130.000000
2023-03-17T05:14:01.198Z,130.000000
2023-03-17T05:15:04.891Z,125.000000
2023-03-17T05:16:01.233Z,125.000000
2023-03-17T05:17:01.124Z,125.000000
2023-03-17T05:18:03.297Z,127.500000
2023-03-17T05:19:01.152Z,127.500000
2023-03-17T05:20:07.983Z,122.500000
2023-03-17T05:21:01.151Z,122.500000
2023-03-17T05:22:01.257Z,122.500000
2023-03-17T05:23:01.145Z,125.000000
2023-03-17T05:24:01.258Z,125.000000
2023-03-17T05:25:06.842Z,125.000000
2023-03-17T05:26:01.274Z,125.000000
2023-03-17T05:27:01.208Z,125.000000
2023-03-17T05:31:22.168Z,135.000000
2023-03-17T05:32:03.921Z,135.000000
2023-03-17T05:33:00.767Z,132.500000
2023-03-17T05:34:00.808Z,132.500000
2023-03-17T05:35:05.285Z,132.500000
2023-03-17T05:36:00.830Z,132.500000
2023-03-17T05:37:00.646Z,132.500000
2023-03-17T05:38:00.771Z,140.000000
2023-03-17T05:39:00.704Z,140.000000
2023-03-17T05:40:05.501Z,117.500000
2023-03-17T05:41:00.692Z,117.500000
2023-03-17T05:42:00.817Z,117.500000
2023-03-17T05:43:00.763Z,130.000000
2023-03-17T05:44:00.715Z,130.000000
2023-03-17T05:45:05.383Z,130.000000
2023-03-17T05:46:00.871Z,130.000000
2023-03-17T05:47:00.765Z,130.000000
2023-03-17T05:48:00.773Z,130.000000
2023-03-17T05:49:00.788Z,130.000000
2023-03-17T05:50:05.334Z,125.000000
2023-03-17T05:51:00.776Z,125.000000
2023-03-17T05:52:00.808Z,125.000000
2023-03-17T05:53:00.753Z,125.000000
2023-03-17T05:54:00.881Z,125.000000
2023-03-17T05:55:05.350Z,125.000000
2023-03-17T05:56:00.865Z,125.000000
2023-03-17T05:57:00.620Z,125.000000
2023-03-17T05:58:00.801Z,125.000000
2023-03-17T05:59:00.792Z,120.000000
2023-03-17T06:00:06.499Z,120.000000
2023-03-17T06:01:00.660Z,127.500000
2023-03-17T06:02:00.899Z,127.500000
2023-03-17T06:03:00.862Z,132.500000
2023-03-17T06:04:00.948Z,132.500000
2023-03-17T06:05:04.257Z,132.500000
2023-03-17T06:06:00.936Z,127.500000
2023-03-17T06:07:00.661Z,127.500000
2023-03-17T06:08:00.886Z,127.500000
2023-03-17T06:09:00.775Z,125.000000
2023-03-17T06:10:05.681Z,125.000000
2023-03-17T06:11:00.722Z,122.500000
2023-03-17T06:12:00.915Z,122.500000
2023-03-17T06:13:03.375Z,122.500000
2023-03-17T06:14:00.775Z,107.500000
2023-03-17T06:15:05.448Z,107.500000
2023-03-17T06:16:00.994Z,107.500000
2023-03-17T06:17:00.832Z,127.500000
2023-03-17T06:18:00.831Z,127.500000
2023-03-17T06:19:00.814Z,120.000000
2023-03-17T06:20:08.239Z,120.000000
2023-03-17T06:21:00.756Z,120.000000
2023-03-17T06:22:00.836Z,125.000000
2023-03-17T06:23:04.936Z,125.000000
2023-03-17T06:24:00.831Z,132.500000
2023-03-17T06:25:05.363Z,135.000000
2023-03-17T06:26:00.878Z,140.000000
2023-03-17T06:27:00.712Z,140.000000
2023-03-17T06:32:45.744Z,137.500000
2023-03-17T06:33:00.683Z,137.500000
2023-03-17T06:38:28.488Z,125.000000
2023-03-17T06:39:00.781Z,132.500000
2023-03-17T06:40:05.448Z,132.500000
2023-03-17T06:41:00.746Z,132.500000
2023-03-17T06:42:00.964Z,127.500000
2023-03-17T06:43:00.822Z,127.500000
2023-03-17T06:44:00.918Z,127.500000
2023-03-17T06:45:05.239Z,127.500000
2023-03-17T06:46:00.822Z,127.500000
2023-03-17T06:47:00.762Z,140.000000
2023-03-17T06:48:00.976Z,140.000000
2023-03-17T06:49:00.831Z,125.000000
2023-03-17T06:50:04.705Z,125.000000
2023-03-17T06:51:00.790Z,125.000000
2023-03-17T06:52:01.207Z,127.500000
2023-03-17T06:53:00.704Z,127.500000
2023-03-17T06:54:00.889Z,117.500000
2023-03-17T06:55:05.285Z,117.500000
2023-03-17T06:56:00.907Z,117.500000
2023-03-17T06:57:00.767Z,125.000000
2023-03-17T06:58:00.972Z,125.000000
2023-03-17T06:59:00.742Z,127.500000
2023-03-17T07:00:05.799Z,127.500000
2023-03-17T07:01:00.798Z,127.500000
2023-03-17T07:02:08.285Z,122.500000
2023-03-17T07:03:00.778Z,122.500000
2023-03-17T07:04:00.948Z,122.500000
2023-03-17T07:05:05.201Z,130.000000
2023-03-17T07:06:01.000Z,130.000000
2023-03-17T07:07:00.824Z,120.000000
2023-03-17T07:08:01.070Z,120.000000
2023-03-17T07:09:02.265Z,125.000000
2023-03-17T07:10:05.754Z,125.000000
2023-03-17T07:11:00.878Z,120.000000
2023-03-17T07:12:00.976Z,120.000000
2023-03-17T07:13:01.000Z,120.000000
2023-03-17T07:14:00.921Z,120.000000
2023-03-17T07:15:06.841Z,120.000000
2023-03-17T07:16:01.025Z,120.000000
2023-03-17T07:17:00.855Z,127.500000
2023-03-17T07:18:01.072Z,127.500000
2023-03-17T07:19:00.878Z,127.500000
2023-03-17T07:20:05.740Z,127.500000
2023-03-17T07:21:00.917Z,130.000000
2023-03-17T07:22:01.064Z,130.000000
2023-03-17T07:23:00.895Z,130.000000
2023-03-17T07:24:01.110Z,122.500000
2023-03-17T07:25:05.393Z,122.500000
2023-03-17T07:26:01.071Z,122.500000
2023-03-17T07:27:00.948Z,130.000000
2023-03-17T07:30:49.957Z,135.000000
2023-03-17T07:31:00.961Z,135.000000
2023-03-17T07:32:01.079Z,137.500000
2023-03-17T07:33:01.081Z,137.500000
2023-03-17T07:34:01.129Z,137.500000
2023-03-17T07:35:04.515Z,135.000000
2023-03-17T07:36:01.221Z,135.000000
2023-03-17T07:37:01.001Z,127.500000
2023-03-17T07:38:01.100Z,127.500000
2023-03-17T07:39:01.000Z,127.500000
2023-03-17T07:40:05.929Z,130.000000
2023-03-17T07:41:01.024Z,130.000000
2023-03-17T07:42:01.201Z,135.000000
2023-03-17T07:43:01.035Z,135.000000
2023-03-17T07:44:01.202Z,137.500000
2023-03-17T07:45:04.731Z,137.500000
2023-03-17T07:46:01.283Z,137.500000
2023-03-17T07:47:01.072Z,137.500000
2023-03-17T07:48:01.332Z,137.500000
2023-03-17T07:49:01.087Z,137.500000
2023-03-17T07:50:05.895Z,147.500000
2023-03-17T07:51:01.098Z,147.500000
2023-03-17T07:52:01.282Z,145.000000
2023-03-17T07:53:01.139Z,145.000000
2023-03-17T07:54:01.591Z,145.000000
2023-03-17T07:55:04.741Z,137.500000
2023-03-17T07:56:02.235Z,137.500000
2023-03-17T07:57:01.166Z,137.500000
2023-03-17T07:58:01.420Z,135.000000
2023-03-17T07:59:01.230Z,135.000000
2023-03-17T08:00:06.102Z,130.000000
2023-03-17T08:01:01.197Z,130.000000
2023-03-17T08:02:04.444Z,130.000000
2023-03-17T08:03:09.830Z,142.500000
2023-03-17T08:04:01.325Z,142.500000
2023-03-17T08:05:05.767Z,135.000000
2023-03-17T08:06:01.373Z,135.000000
2023-03-17T08:07:01.244Z,135.000000
2023-03-17T08:08:01.446Z,135.000000
2023-03-17T08:09:01.273Z,135.000000
2023-03-17T08:10:06.912Z,132.500000
2023-03-17T08:11:01.238Z,132.500000
2023-03-17T08:12:01.367Z,132.500000
2023-03-17T08:13:01.259Z,140.000000
2023-03-17T08:14:01.484Z,140.000000
2023-03-17T08:15:05.233Z,140.000000
2023-03-17T08:16:00.871Z,140.000000
2023-03-17T08:17:00.795Z,130.000000
2023-03-17T08:18:00.921Z,130.000000
2023-03-17T08:19:00.761Z,130.000000
2023-03-17T08:20:06.166Z,132.500000
2023-03-17T08:21:00.749Z,132.500000
2023-03-17T08:22:00.955Z,132.500000
2023-03-17T08:23:00.815Z,135.000000
2023-03-17T08:24:00.941Z,135.000000
2023-03-17T08:25:04.283Z,140.000000
2023-03-17T08:26:00.852Z,140.000000
2023-03-17T08:27:01.053Z,140.000000
2023-03-17T08:28:08.060Z,130.000000
2023-03-17T08:29:00.832Z,130.000000
2023-03-17T08:30:06.357Z,127.500000
2023-03-17T08:31:00.834Z,127.500000
2023-03-17T08:32:00.874Z,127.500000
2023-03-17T08:33:00.874Z,125.000000
2023-03-17T08:34:01.054Z,125.000000
2023-03-17T08:35:04.408Z,140.000000
2023-03-17T08:36:01.202Z,140.000000
2023-03-17T08:37:00.820Z,140.000000
2023-03-17T08:38:01.094Z,135.000000
2023-03-17T08:39:00.760Z,135.000000
2023-03-17T08:40:05.894Z,122.500000
2023-03-17T08:41:00.844Z,122.500000
2023-03-17T08:42:00.906Z,122.500000
2023-03-17T08:43:00.807Z,155.000000
2023-03-17T08:44:00.918Z,155.000000
2023-03-17T08:45:04.474Z,130.000000
2023-03-17T08:46:01.002Z,130.000000
2023-03-17T08:47:00.851Z,130.000000
2023-03-17T08:48:00.911Z,125.000000
2023-03-17T08:49:00.834Z,125.000000
2023-03-17T08:50:05.604Z,120.000000
2023-03-17T08:51:00.677Z,120.000000
2023-03-17T08:52:00.908Z,120.000000
2023-03-17T08:53:00.749Z,147.500000
2023-03-17T08:54:01.074Z,147.500000
2023-03-17T08:55:04.346Z,147.500000
2023-03-17T08:56:00.971Z,140.000000
2023-03-17T08:57:00.649Z,140.000000
2023-03-17T08:58:00.807Z,140.000000
2023-03-17T08:59:00.755Z,135.000000
2023-03-17T09:00:05.370Z,135.000000
2023-03-17T09:01:00.739Z,142.500000
2023-03-17T09:02:02.116Z,142.500000
2023-03-17T09:03:00.849Z,147.500000
2023-03-17T09:04:01.700Z,147.500000
2023-03-17T09:05:06.228Z,147.500000
2023-03-17T09:06:02.169Z,135.000000
2023-03-17T09:07:04.088Z,135.000000
2023-03-17T09:08:00.869Z,135.000000
2023-03-17T09:09:00.816Z,132.500000
2023-03-17T09:10:05.518Z,132.500000
2023-03-17T09:11:00.670Z,142.500000
2023-03-17T09:12:01.839Z,142.500000
2023-03-17T09:13:00.842Z,140.000000
2023-03-17T09:14:04.459Z,140.000000
2023-03-17T09:15:05.351Z,140.000000
2023-03-17T09:16:01.171Z,120.000000
2023-03-17T09:17:00.659Z,120.000000
2023-03-17T09:18:02.233Z,120.000000
2023-03-17T09:19:00.735Z,140.000000
2023-03-17T09:20:04.758Z,140.000000
2023-03-17T09:21:00.729Z,140.000000
2023-03-17T09:22:00.900Z,140.000000
2023-03-17T09:23:00.688Z,140.000000
2023-03-17T09:24:02.589Z,130.000000
2023-03-17T09:25:05.181Z,130.000000
2023-03-17T09:26:00.989Z,127.500000
2023-03-17T09:27:00.701Z,127.500000
2023-03-17T09:28:00.828Z,127.500000
2023-03-17T09:29:03.118Z,120.000000
2023-03-17T09:30:04.517Z,120.000000
2023-03-17T09:31:00.724Z,120.000000
2023-03-17T09:32:00.888Z,120.000000
2023-03-17T09:33:00.907Z,120.000000
2023-03-17T09:34:00.875Z,157.500000
2023-03-17T09:35:05.377Z,157.500000
2023-03-17T09:36:00.887Z,140.000000
2023-03-17T09:37:00.644Z,140.000000
2023-03-17T09:38:00.891Z,140.000000
2023-03-17T09:39:00.816Z,130.000000
2023-03-17T09:40:04.632Z,130.000000
2023-03-17T09:41:00.685Z,130.000000
2023-03-17T09:42:00.875Z,150.000000
2023-03-17T09:43:00.685Z,150.000000
2023-03-17T09:44:00.933Z,162.500000
2023-03-17T09:45:05.295Z,162.500000
2023-03-17T09:46:00.919Z,162.500000
2023-03-17T09:47:00.704Z,125.000000
2023-03-17T09:48:03.976Z,125.000000
2023-03-17T09:49:00.698Z,122.500000
2023-03-17T09:50:05.639Z,122.500000
2023-03-17T09:51:00.759Z,137.500000
2023-03-17T09:52:00.963Z,137.500000
2023-03-17T09:53:03.785Z,137.500000
2023-03-17T09:54:00.918Z,155.000000
2023-03-17T09:55:05.286Z,155.000000
2023-03-17T09:56:00.839Z,155.000000
2023-03-17T09:57:00.770Z,155.000000
2023-03-17T09:58:01.146Z,155.000000
2023-03-17T09:59:00.768Z,140.000000
2023-03-17T10:00:06.835Z,140.000000
2023-03-17T10:01:00.936Z,140.000000
2023-03-17T10:02:01.071Z,147.500000
2023-03-17T10:03:00.894Z,147.500000
2023-03-17T10:04:01.033Z,145.000000
2023-03-17T10:05:05.330Z,145.000000
2023-03-17T10:06:01.043Z,145.000000
2023-03-17T10:07:00.837Z,145.000000
2023-03-17T10:08:00.958Z,145.000000
2023-03-17T10:09:00.844Z,137.500000
2023-03-17T10:10:05.606Z,137.500000
2023-03-17T10:11:00.827Z,135.000000
2023-03-17T10:12:01.046Z,135.000000
2023-03-17T10:13:00.846Z,135.000000
2023-03-17T10:14:00.929Z,140.000000
2023-03-17T10:15:04.750Z,140.000000
2023-03-17T10:16:01.059Z,145.000000
2023-03-17T10:17:00.864Z,145.000000
2023-03-17T10:18:01.045Z,145.000000
2023-03-17T10:19:00.888Z,145.000000
2023-03-17T10:20:05.691Z,145.000000
2023-03-17T10:21:00.904Z,145.000000
2023-03-17T10:22:01.080Z,145.000000
2023-03-17T10:23:00.934Z,145.000000
2023-03-17T10:24:01.059Z,160.000000
2023-03-17T10:25:07.400Z,160.000000
2023-03-17T10:26:01.087Z,160.000000
2023-03-17T10:27:00.933Z,137.500000
2023-03-17T10:28:16.335Z,137.500000
2023-03-17T10:29:00.946Z,132.500000
2023-03-17T10:30:05.969Z,132.500000
2023-03-17T10:31:00.958Z,135.000000
2023-03-17T10:32:01.212Z,135.000000
2023-03-17T10:33:01.003Z,135.000000
2023-03-17T10:34:01.129Z,137.500000
2023-03-17T10:35:05.515Z,137.500000
2023-03-17T10:36:01.099Z,137.500000
2023-03-17T10:37:00.982Z,132.500000
2023-03-17T10:38:13.734Z,132.500000
2023-03-17T10:39:00.994Z,132.500000
2023-03-17T10:40:05.764Z,160.000000
2023-03-17T10:41:00.992Z,160.000000
2023-03-17T10:42:01.208Z,132.500000
2023-03-17T10:43:00.985Z,132.500000
2023-03-17T10:44:01.143Z,125.000000
2023-03-17T10:45:05.589Z,125.000000
2023-03-17T10:46:01.137Z,125.000000
2023-03-17T10:47:01.314Z,147.500000
2023-03-17T10:48:01.397Z,147.500000
2023-03-17T10:49:01.054Z,147.500000
2023-03-17T10:50:05.858Z,145.000000
2023-03-17T10:51:01.060Z,145.000000
2023-03-17T10:52:01.169Z,162.500000
2023-03-17T10:53:01.051Z,162.500000
2023-03-17T10:54:01.243Z,155.000000
2023-03-17T10:55:06.328Z,155.000000
2023-03-17T10:56:01.260Z,155.000000
2023-03-17T10:57:01.113Z,155.000000
2023-03-17T10:58:01.278Z,155.000000
2023-03-17T10:59:01.110Z,155.000000
2023-03-17T11:00:05.179Z,155.000000
2023-03-17T11:01:01.175Z,155.000000
2023-03-17T11:02:01.234Z,170.000000
2023-03-17T11:03:01.166Z,170.000000
2023-03-17T11:04:01.285Z,170.000000
2023-03-17T11:05:05.833Z,155.000000
2023-03-17T11:06:01.356Z,155.000000
2023-03-17T11:07:00.779Z,145.000000
2023-03-17T11:08:00.734Z,145.000000
2023-03-17T11:09:00.649Z,145.000000
2023-03-17T11:10:05.597Z,135.000000
2023-03-17T11:11:00.717Z,135.000000
2023-03-17T11:12:00.843Z,135.000000
2023-03-17T11:13:00.696Z,135.000000
2023-03-17T11:14:00.941Z,135.000000
2023-03-17T11:15:05.207Z,132.500000
2023-03-17T11:16:00.839Z,132.500000
2023-03-17T11:17:00.677Z,137.500000
2023-03-17T11:18:01.100Z,137.500000
2023-03-17T11:19:00.672Z,137.500000
2023-03-17T11:20:05.504Z,132.500000